Latest Coastal Weather Observations for Karratha

IDW60701

Issued at 9:43 pm WST Monday 4 May 2026 (issued every 10 minutes, with the page automatically refreshed every 10 minutes)

About coastal observations | Map of coastal stations | Coastal observations for WA | Marine services | Other Formats
Station Details ID: 004083 Name: KARRATHA AERO Lat: -20.71 Lon: 116.77 Height: 5.3 m
Data from the previous 72 hours. | See also: Recent months at Karratha
Date/Time
WST
Wind Sea
Height
m
Swell Vis
km
Cloud Weather Temp
°C
Press
MSL
hPa
Rain since
9am
mm
Dir  Spd
kts
Gust
kts
Height
m
Period
s
Dir
04/09:30pm NE 4 5 - - - - 10 Clear - 22.9 1015.8 0.0
04/09:00pm NE 3 4 - - - - 10 - - 23.4 1015.8 0.0
04/08:30pm ENE 4 6 - - - - 10 - - 24.1 1015.6 0.0
04/08:00pm NE 4 5 - - - - 10 - - 24.1 1015.4 0.0
04/07:30pm ENE 5 6 - - - - 10 - - 24.4 1015.1 0.0
04/07:00pm NE 6 6 - - - - 10 - - 25.1 1015.0 0.0
04/06:30pm NE 7 9 - - - - 10 - - 25.9 1014.7 0.0
04/06:00pm NE 8 9 - - - - 10 - - 26.9 1014.5 0.0
04/05:30pm NNE 9 13 - - - - 10 - - 28.2 1014.2 0.0
04/05:00pm NE 10 13 - - - - 10 - - 29.2 1014.0 0.0
04/04:30pm NE 13 17 - - - - 10 - - 29.8 1013.8 0.0
04/04:00pm NE 14 17 - - - - 10 - - 30.2 1013.8 0.0
04/03:30pm NE 14 17 - - - - 10 - - 30.3 1013.8 0.0
04/03:00pm NE 16 19 - - - - 10 - - 30.4 1013.8 0.0
04/02:30pm NE 15 19 - - - - 10 - - 31.2 1014.0 0.0
04/02:00pm NE 14 18 - - - - 10 - - 31.8 1014.4 0.0
04/01:30pm ENE 14 17 - - - - 10 - - 31.0 1014.7 0.0
04/01:00pm ENE 15 19 - - - - 10 - - 31.3 1015.2 0.0
04/12:30pm ENE 16 20 - - - - 10 - - 31.0 1015.8 0.0
04/12:00pm ENE 17 22 - - - - 10 - - 30.9 1016.3 0.0
04/11:30am E 18 21 - - - - 10 - - 30.4 1016.8 0.0
04/11:00am E 17 22 - - - - 10 - - 29.7 1017.3 0.0
04/10:30am ENE 18 23 - - - - 10 - - 28.6 1017.7 0.0
04/10:00am E 17 23 - - - - 10 - - 28.3 1017.8 0.0
04/09:30am E 18 23 - - - - 10 - - 27.5 1017.9 0.0
04/09:00am E 20 26 - - - - 10 - - 27.0 1017.7 0.0
04/08:30am E 17 22 - - - - 10 - - 26.3 1017.6 0.0
04/08:00am E 14 18 - - - - 10 - - 25.0 1017.4 0.0
04/07:30am ESE 14 18 - - - - 10 - - 24.2 1017.4 0.0
04/07:00am E 12 15 - - - - 10 - - 23.1 1017.3 0.0
04/06:30am E 12 14 - - - - 10 - - 21.7 1016.9 0.0
04/06:00am E 12 14 - - - - 10 - - 21.7 1016.6 0.0
04/05:30am E 10 12 - - - - 10 - - 21.2 1016.3 0.0
04/05:00am E 11 13 - - - - 10 - - 21.5 1016.1 0.0
04/04:30am E 12 15 - - - - 10 - - 22.2 1015.9 0.0
04/04:00am E 11 14 - - - - 10 Partly cloudy - 23.6 1015.8 0.0
04/03:30am ESE 9 12 - - - - 10 - - 23.4 1015.8 0.0
04/03:00am SSE 7 8 - - - - 10 - - 21.4 1015.6 0.0
04/02:30am SSE 7 8 - - - - 10 - - 21.7 1015.4 0.0
04/02:00am SSE 7 8 - - - - 10 - - 21.9 1015.2 0.0
04/01:30am SSE 8 10 - - - - 10 Partly cloudy - 22.1 1015.2 0.0
04/01:00am SSE 8 9 - - - - 10 Mostly clear - 21.6 1015.3 0.0
04/12:30am SSE 8 9 - - - - 10 Mostly clear - 21.4 1015.1 0.0
04/12:00am CALM 0 0 - - - - 10 Mostly clear - 22.4 1015.2 0.0
 
Date/Time
WST
Wind Sea
Height
m
Swell Vis
km
Cloud Weather Temp
°C
Press
MSL
hPa
Rain since
9am
mm
Dir  Spd
kts
Gust
kts
Height
m
Period
s
Dir
03/11:30pm CALM 0 0 - - - - 10 - - 22.6 1015.3 0.0
03/11:00pm CALM 0 0 - - - - 10 - - 22.4 1015.2 0.0
03/10:30pm CALM 0 0 - - - - 10 - - 22.5 1015.1 0.0
03/10:00pm CALM 0 0 - - - - 10 - - 23.4 1015.2 0.0
03/09:30pm CALM 0 0 - - - - 10 Partly cloudy - 24.1 1015.3 0.0
03/09:00pm CALM 0 0 - - - - 10 - - 24.3 1015.3 0.0
03/08:30pm NE 1 3 - - - - 10 - - 25.0 1015.0 0.0
03/08:00pm NE 3 4 - - - - 10 - - 25.0 1014.6 0.0
03/07:30pm NE 4 4 - - - - 10 - - 25.3 1014.1 0.0
03/07:00pm NE 4 4 - - - - 10 - - 26.0 1014.0 0.0
03/06:30pm NE 5 5 - - - - 10 - - 26.2 1013.6 0.0
03/06:00pm NE 5 6 - - - - 10 - - 27.0 1013.3 0.0
03/05:30pm NE 7 8 - - - - 10 - - 28.0 1013.1 0.0
03/05:00pm NE 9 12 - - - - 10 - - 28.9 1012.8 0.0
03/04:30pm NE 11 14 - - - - 10 - - 29.1 1012.7 0.0
03/04:00pm NE 11 15 - - - - 10 - - 29.3 1012.7 0.0
03/03:30pm NE 13 16 - - - - 10 - - 29.4 1012.8 0.0
03/03:00pm NE 15 18 - - - - 10 - - 29.6 1012.9 0.0
03/02:30pm NE 15 19 - - - - 10 - - 29.8 1013.0 0.0
03/02:00pm NE 16 19 - - - - 10 - - 29.1 1013.0 0.0
03/01:30pm NE 16 19 - - - - 10 - - 29.8 1013.4 0.0
03/01:00pm ENE 14 19 - - - - 10 - - 29.7 1013.7 0.0
03/12:30pm ENE 16 19 - - - - 10 - - 29.6 1014.0 0.0
03/12:00pm ENE 15 19 - - - - 10 - - 30.1 1014.6 0.0
03/11:30am ENE 17 21 - - - - 10 - - 29.4 1015.0 0.0
03/11:00am ENE 17 21 - - - - 10 - - 29.2 1015.5 0.0
03/10:30am E 18 23 - - - - 10 - - 27.9 1015.9 0.0
03/10:00am E 18 23 - - - - 10 - - 27.5 1016.2 0.0
03/09:30am E 18 22 - - - - 10 - - 26.8 1016.2 0.0
03/09:00am E 20 24 - - - - 10 Mostly cloudy - 26.4 1015.9 0.0
03/08:30am E 19 24 - - - - 10 - - 25.4 1015.9 0.0
03/08:00am E 18 22 - - - - 10 Partly cloudy - 24.9 1015.6 0.0
03/07:30am E 16 21 - - - - 10 - - 23.9 1015.2 0.0
03/07:00am E 14 18 - - - - 10 Mostly clear - 23.3 1014.7 0.0
03/06:30am E 11 14 - - - - 10 Partly cloudy - 22.9 1014.5 0.0
03/06:00am E 12 15 - - - - 10 - - 23.2 1014.0 0.0
03/05:30am E 16 19 - - - - 10 Mostly clear - 24.5 1013.7 0.0
03/05:00am E 13 16 - - - - 10 Partly cloudy - 24.5 1013.3 0.0
03/04:30am E 10 13 - - - - 10 Mostly clear - 24.7 1013.1 0.0
03/04:00am ESE 10 12 - - - - 10 Partly cloudy - 25.4 1013.1 0.0
03/03:30am ESE 7 9 - - - - 10 Mostly clear - 24.9 1012.9 0.0
03/03:00am SE 5 6 - - - - 10 Mostly cloudy - 24.1 1012.8 0.0
03/02:30am SE 3 4 - - - - 10 - - 24.2 1013.0 0.0
03/02:00am SE 5 6 - - - - 10 - - 24.1 1013.0 0.0
03/01:30am SE 5 7 - - - - 10 - - 23.8 1013.0 0.0
03/01:00am SSE 7 8 - - - - 10 - - 23.2 1012.9 0.0
03/12:30am SSE 6 7 - - - - 10 - - 23.7 1012.9 0.0
03/12:00am SSE 7 7 - - - - 10 - - 23.7 1013.0 0.0
 
Date/Time
WST
Wind Sea
Height
m
Swell Vis
km
Cloud Weather Temp
°C
Press
MSL
hPa
Rain since
9am
mm
Dir  Spd
kts
Gust
kts
Height
m
Period
s
Dir
02/11:30pm S 5 7 - - - - 10 - - 24.1 1013.1 0.0
02/11:00pm NNE 2 5 - - - - 10 - - 24.5 1013.0 0.0
02/10:30pm NNE 3 4 - - - - 10 - - 25.7 1013.0 0.0
02/10:00pm NNE 5 6 - - - - 10 - - 26.3 1012.9 0.0
02/09:30pm NNE 5 6 - - - - 10 - - 26.1 1013.0 0.0
02/09:00pm NNE 5 6 - - - - 10 - - 26.2 1012.8 0.0
02/08:30pm NNE 5 5 - - - - 10 - - 26.0 1012.5 0.0
02/08:00pm N 5 6 - - - - 10 - - 27.2 1012.2 0.0
02/07:30pm N 5 5 - - - - 10 - - 27.2 1011.9 0.0
02/07:00pm NNE 5 5 - - - - 10 - - 27.5 1011.4 0.0
02/06:30pm NNE 7 8 - - - - 10 - - 27.9 1011.3 0.0
02/06:00pm NNE 8 11 - - - - 10 Mostly clear - 28.3 1011.0 0.0
02/05:30pm NNE 9 11 - - - - 10 - - 28.8 1010.7 0.0
02/05:00pm NNE 8 11 - - - - 10 - - 30.1 1010.6 0.0
02/04:30pm NNE 9 11 - - - - 10 - - 30.7 1010.3 0.0
02/04:00pm NNE 10 13 - - - - 10 - - 30.6 1010.3 0.0
02/03:30pm NNE 11 15 - - - - 10 - - 30.5 1010.4 0.0
02/03:00pm NNE 12 15 - - - - 10 - - 30.9 1010.3 0.0
02/02:30pm NNE 14 17 - - - - 10 - - 30.8 1010.5 0.0
02/02:00pm NE 14 17 - - - - 10 - - 30.9 1010.8 0.0
02/01:30pm NE 15 18 - - - - 10 - - 31.3 1011.1 0.0
02/01:00pm NE 14 18 - - - - 10 - - 31.4 1011.4 0.0
02/12:30pm ENE 14 17 - - - - 10 - - 32.1 1011.7 0.0
02/12:00pm ENE 14 17 - - - - 10 - - 31.7 1012.1 0.0
02/11:30am ENE 15 17 - - - - 10 - - 31.7 1012.6 0.0
02/11:00am E 15 18 - - - - 10 - - 30.4 1012.9 0.0
02/10:30am E 16 19 - - - - 10 - - 29.8 1013.2 0.0
02/10:00am E 16 20 - - - - 10 - - 29.9 1013.4 0.0
02/09:30am E 17 21 - - - - 10 - - 29.4 1013.4 0.0
02/09:00am E 12 16 - - - - 10 - - 28.3 1012.9 0.0
02/08:30am E 12 15 - - - - 10 - - 27.3 1012.9 0.0
02/08:00am E 7 10 - - - - 10 - - 26.1 1012.5 0.0
02/07:30am ESE 6 6 - - - - 10 - - 24.4 1012.1 0.0
02/07:00am E 5 6 - - - - 10 - - 22.6 1011.3 0.0
02/06:30am E 4 5 - - - - 10 - - 22.2 1010.9 0.0
02/06:00am SSE 3 4 - - - - 10 - - 22.1 1010.8 0.0
02/05:30am SSE 4 4 - - - - 10 - - 22.2 1010.6 0.0
02/05:00am SSE 3 4 - - - - 10 - - 22.3 1010.5 0.0
02/04:30am SE 6 7 - - - - 10 - - 22.2 1010.3 0.0
02/04:00am SW 7 8 - - - - 10 - - 22.6 1010.2 0.0
02/03:30am SW 3 3 - - - - 10 - - 23.0 1010.2 0.0
02/03:00am SW 3 4 - - - - 10 - - 23.3 1010.4 0.0
02/02:30am SW 4 5 - - - - 10 - - 24.1 1010.3 0.0
02/02:00am SW 5 6 - - - - 10 - - 24.0 1010.5 0.0
02/01:30am SW 6 7 - - - - 10 - - 24.0 1010.8 0.0
02/01:00am SSW 8 8 - - - - 10 - - 23.9 1011.0 0.0
02/12:30am SSW 5 6 - - - - 10 - - 24.9 1011.3 0.0
02/12:00am W 8 10 - - - - 10 - - 27.0 1011.6 0.0
 
Date/Time
WST
Wind Sea
Height
m
Swell Vis
km
Cloud Weather Temp
°C
Press
MSL
hPa
Rain since
9am
mm
Dir  Spd
kts
Gust
kts
Height
m
Period
s
Dir
01/11:30pm W 9 11 - - - - 10 - - 26.8 1011.5 0.0
01/11:00pm W 8 9 - - - - 10 - - 26.6 1011.7 0.0
01/10:30pm WSW 8 10 - - - - 10 - - 26.6 1012.1 0.0
01/10:00pm WSW 10 14 - - - - 10 - - 26.8 1012.2 0.0

Other formats

Comma delimited format used in spreadsheet applications
http://www.bom.gov.au/fwo/IDW60701/IDW60701.95307.axf

JavaScript Object Notation format (JSON) in row-major order
http://www.bom.gov.au/fwo/IDW60701/IDW60701.95307.json

Data quality

Most of these data are generated automatically and are frequently updated. Quality checks on data are not normally performed. It is possible for incorrect values to appear. Refer to information at About Latest Weather Observations and please check the disclaimer before using these data.